sensor_id;sensor_type;location;lat;lon;timestamp;P1;P2;P0
65383;PMS5003;51986;52.788;41.368;2024-01-07T00:00:50;16.00;15.25;14.00
65383;PMS5003;51986;52.788;41.368;2024-01-07T00:03:17;18.00;18.00;15.00
65383;PMS5003;51986;52.788;41.368;2024-01-07T00:05:44;14.00;14.00;12.00
65383;PMS5003;51986;52.788;41.368;2024-01-07T00:08:11;12.00;12.00;11.00
65383;PMS5003;51986;52.788;41.368;2024-01-07T00:10:39;13.25;12.00;11.00
65383;PMS5003;51986;52.788;41.368;2024-01-07T00:13:05;17.75;15.75;14.00
65383;PMS5003;51986;52.788;41.368;2024-01-07T00:15:33;21.00;19.00;15.00
65383;PMS5003;51986;52.788;41.368;2024-01-07T00:18:00;14.00;14.00;12.00
65383;PMS5003;51986;52.788;41.368;2024-01-07T00:20:27;15.25;15.25;12.00
65383;PMS5003;51986;52.788;41.368;2024-01-07T00:22:54;17.00;17.00;14.00
65383;PMS5003;51986;52.788;41.368;2024-01-07T00:25:21;16.75;16.50;13.75
65383;PMS5003;51986;52.788;41.368;2024-01-07T00:27:48;18.00;16.00;14.00
65383;PMS5003;51986;52.788;41.368;2024-01-07T00:30:15;18.00;16.00;14.00
65383;PMS5003;51986;52.788;41.368;2024-01-07T00:32:42;14.75;13.25;12.00
65383;PMS5003;51986;52.788;41.368;2024-01-07T00:35:09;10.50;10.00;9.00
65383;PMS5003;51986;52.788;41.368;2024-01-07T00:37:36;14.25;13.75;12.00
65383;PMS5003;51986;52.788;41.368;2024-01-07T00:40:04;12.00;12.00;10.00
65383;PMS5003;51986;52.788;41.368;2024-01-07T00:42:32;10.25;10.00;7.00
65383;PMS5003;51986;52.788;41.368;2024-01-07T00:44:59;14.50;14.00;12.00
65383;PMS5003;51986;52.788;41.368;2024-01-07T00:47:26;12.00;12.00;10.00
65383;PMS5003;51986;52.788;41.368;2024-01-07T00:49:53;14.50;13.50;12.00
65383;PMS5003;51986;52.788;41.368;2024-01-07T00:52:20;16.50;15.50;13.25
65383;PMS5003;51986;52.788;41.368;2024-01-07T00:54:47;18.25;16.50;14.00
65383;PMS5003;51986;52.788;41.368;2024-01-07T00:57:14;18.00;17.00;14.00
65383;PMS5003;51986;52.788;41.368;2024-01-07T00:59:41;14.25;12.00;10.00
65383;PMS5003;51986;52.788;41.368;2024-01-07T01:02:08;17.00;15.75;12.75
65383;PMS5003;51986;52.788;41.368;2024-01-07T01:04:37;16.75;16.00;14.00
65383;PMS5003;51986;52.788;41.368;2024-01-07T01:07:06;16.00;14.25;12.00
65383;PMS5003;51986;52.788;41.368;2024-01-07T01:09:33;17.25;16.00;13.75
65383;PMS5003;51986;52.788;41.368;2024-01-07T01:12:00;16.00;14.25;12.00
65383;PMS5003;51986;52.788;41.368;2024-01-07T01:14:27;13.00;11.00;9.00
65383;PMS5003;51986;52.788;41.368;2024-01-07T01:16:54;14.00;12.00;8.00
65383;PMS5003;51986;52.788;41.368;2024-01-07T01:19:21;10.00;9.25;6.25
65383;PMS5003;51986;52.788;41.368;2024-01-07T01:21:49;11.00;10.00;7.00
65383;PMS5003;51986;52.788;41.368;2024-01-07T01:24:17;13.25;11.00;7.00
65383;PMS5003;51986;52.788;41.368;2024-01-07T01:26:44;16.50;15.00;12.25
65383;PMS5003;51986;52.788;41.368;2024-01-07T01:29:11;16.00;14.00;12.00
65383;PMS5003;51986;52.788;41.368;2024-01-07T01:31:38;16.75;16.25;14.00
65383;PMS5003;51986;52.788;41.368;2024-01-07T01:34:06;14.25;13.50;12.00
65383;PMS5003;51986;52.788;41.368;2024-01-07T01:36:33;9.00;8.00;7.00
65383;PMS5003;51986;52.788;41.368;2024-01-07T01:39:00;10.00;9.00;8.00
65383;PMS5003;51986;52.788;41.368;2024-01-07T01:41:27;13.00;11.75;10.00
65383;PMS5003;51986;52.788;41.368;2024-01-07T01:43:58;12.00;10.00;9.00
65383;PMS5003;51986;52.788;41.368;2024-01-07T01:46:26;12.50;10.00;6.25
65383;PMS5003;51986;52.788;41.368;2024-01-07T01:48:55;16.00;14.00;10.00
65383;PMS5003;51986;52.788;41.368;2024-01-07T01:51:23;17.00;16.00;12.00
65383;PMS5003;51986;52.788;41.368;2024-01-07T01:53:50;14.00;12.00;10.00
65383;PMS5003;51986;52.788;41.368;2024-01-07T01:56:20;13.75;12.50;9.00
65383;PMS5003;51986;52.788;41.368;2024-01-07T01:58:47;13.00;12.50;9.00
65383;PMS5003;51986;52.788;41.368;2024-01-07T02:01:14;13.50;12.00;9.00
65383;PMS5003;51986;52.788;41.368;2024-01-07T02:03:42;13.00;11.00;6.25
65383;PMS5003;51986;52.788;41.368;2024-01-07T02:06:09;11.75;11.50;5.00
65383;PMS5003;51986;52.788;41.368;2024-01-07T02:08:36;15.00;14.00;9.50
65383;PMS5003;51986;52.788;41.368;2024-01-07T02:11:14;15.00;14.50;11.25
65383;PMS5003;51986;52.788;41.368;2024-01-07T02:13:42;14.50;14.50;12.00
65383;PMS5003;51986;52.788;41.368;2024-01-07T02:16:09;15.75;14.75;12.00
65383;PMS5003;51986;52.788;41.368;2024-01-07T02:18:37;16.00;15.50;12.00
65383;PMS5003;51986;52.788;41.368;2024-01-07T02:21:08;16.50;16.00;12.00
65383;PMS5003;51986;52.788;41.368;2024-01-07T02:23:36;12.00;12.00;10.00
65383;PMS5003;51986;52.788;41.368;2024-01-07T02:26:03;14.00;12.00;8.00
65383;PMS5003;51986;52.788;41.368;2024-01-07T02:28:31;12.00;12.00;7.00
65383;PMS5003;51986;52.788;41.368;2024-01-07T02:30:59;13.00;13.00;8.75
65383;PMS5003;51986;52.788;41.368;2024-01-07T02:33:27;15.75;15.50;11.25
65383;PMS5003;51986;52.788;41.368;2024-01-07T02:35:54;16.00;15.00;12.00
65383;PMS5003;51986;52.788;41.368;2024-01-07T02:38:22;14.00;13.00;10.00
65383;PMS5003;51986;52.788;41.368;2024-01-07T02:40:49;12.00;12.00;9.00
65383;PMS5003;51986;52.788;41.368;2024-01-07T02:43:16;10.75;10.75;8.00
65383;PMS5003;51986;52.788;41.368;2024-01-07T02:45:43;12.00;11.00;5.00
65383;PMS5003;51986;52.788;41.368;2024-01-07T02:48:10;10.75;9.00;4.00
65383;PMS5003;51986;52.788;41.368;2024-01-07T02:50:37;11.00;9.00;5.00
65383;PMS5003;51986;52.788;41.368;2024-01-07T02:53:04;11.00;8.00;4.00
65383;PMS5003;51986;52.788;41.368;2024-01-07T02:55:31;11.50;8.50;5.50
65383;PMS5003;51986;52.788;41.368;2024-01-07T02:57:58;16.75;14.50;11.50
65383;PMS5003;51986;52.788;41.368;2024-01-07T03:00:26;13.00;12.00;7.75
65383;PMS5003;51986;52.788;41.368;2024-01-07T03:02:53;13.00;12.50;8.75
65383;PMS5003;51986;52.788;41.368;2024-01-07T03:05:20;13.25;12.25;8.50
65383;PMS5003;51986;52.788;41.368;2024-01-07T03:07:47;13.00;12.00;8.00
65383;PMS5003;51986;52.788;41.368;2024-01-07T03:10:14;11.00;11.00;5.00
65383;PMS5003;51986;52.788;41.368;2024-01-07T03:12:41;10.75;10.00;4.75
65383;PMS5003;51986;52.788;41.368;2024-01-07T03:15:08;12.00;10.00;5.00
65383;PMS5003;51986;52.788;41.368;2024-01-07T03:17:35;13.25;12.00;7.50
65383;PMS5003;51986;52.788;41.368;2024-01-07T03:20:02;12.00;12.00;8.00
65383;PMS5003;51986;52.788;41.368;2024-01-07T03:22:30;13.00;13.00;10.25
65383;PMS5003;51986;52.788;41.368;2024-01-07T03:24:57;16.00;14.00;11.50
65383;PMS5003;51986;52.788;41.368;2024-01-07T03:27:24;15.00;12.00;10.00
65383;PMS5003;51986;52.788;41.368;2024-01-07T03:29:51;16.00;14.00;10.75
65383;PMS5003;51986;52.788;41.368;2024-01-07T03:32:20;12.00;11.25;8.00
65383;PMS5003;51986;52.788;41.368;2024-01-07T03:34:47;11.25;10.25;6.00
65383;PMS5003;51986;52.788;41.368;2024-01-07T03:37:14;13.75;13.00;8.25
65383;PMS5003;51986;52.788;41.368;2024-01-07T03:39:41;13.50;13.25;10.00
65383;PMS5003;51986;52.788;41.368;2024-01-07T03:42:08;11.50;11.00;5.25
65383;PMS5003;51986;52.788;41.368;2024-01-07T03:44:35;11.25;10.00;5.50
65383;PMS5003;51986;52.788;41.368;2024-01-07T03:47:02;11.75;10.00;5.00
65383;PMS5003;51986;52.788;41.368;2024-01-07T03:49:29;12.75;10.00;5.50
65383;PMS5003;51986;52.788;41.368;2024-01-07T03:51:56;13.25;11.25;7.75
65383;PMS5003;51986;52.788;41.368;2024-01-07T03:54:23;11.25;10.00;5.00
65383;PMS5003;51986;52.788;41.368;2024-01-07T03:56:50;12.50;11.00;5.50
65383;PMS5003;51986;52.788;41.368;2024-01-07T03:59:17;13.00;11.00;6.00
65383;PMS5003;51986;52.788;41.368;2024-01-07T04:01:44;13.00;11.00;6.00
65383;PMS5003;51986;52.788;41.368;2024-01-07T04:04:13;8.25;8.00;4.00
65383;PMS5003;51986;52.788;41.368;2024-01-07T04:06:40;9.75;8.00;3.00
65383;PMS5003;51986;52.788;41.368;2024-01-07T04:09:07;8.00;6.00;3.00
65383;PMS5003;51986;52.788;41.368;2024-01-07T04:11:38;6.00;5.00;2.25
65383;PMS5003;51986;52.788;41.368;2024-01-07T04:14:09;5.00;5.00;3.00
65383;PMS5003;51986;52.788;41.368;2024-01-07T04:16:36;5.00;3.75;1.75
65383;PMS5003;51986;52.788;41.368;2024-01-07T04:19:03;4.50;3.50;1.50
65383;PMS5003;51986;52.788;41.368;2024-01-07T04:21:31;5.75;5.75;3.25
65383;PMS5003;51986;52.788;41.368;2024-01-07T04:23:58;5.25;4.00;1.50
65383;PMS5003;51986;52.788;41.368;2024-01-07T04:26:25;2.75;2.25;1.00
65383;PMS5003;51986;52.788;41.368;2024-01-07T04:28:52;3.00;3.00;2.00
65383;PMS5003;51986;52.788;41.368;2024-01-07T04:31:19;3.75;3.00;2.00
65383;PMS5003;51986;52.788;41.368;2024-01-07T04:33:46;3.00;3.00;2.00
65383;PMS5003;51986;52.788;41.368;2024-01-07T04:36:14;4.00;3.00;3.00
65383;PMS5003;51986;52.788;41.368;2024-01-07T04:38:41;4.00;4.00;2.25
65383;PMS5003;51986;52.788;41.368;2024-01-07T04:41:08;4.00;3.00;1.00
65383;PMS5003;51986;52.788;41.368;2024-01-07T04:43:35;3.00;3.00;1.00
65383;PMS5003;51986;52.788;41.368;2024-01-07T04:46:02;5.75;5.00;3.00
65383;PMS5003;51986;52.788;41.368;2024-01-07T04:48:29;4.00;3.00;1.00
65383;PMS5003;51986;52.788;41.368;2024-01-07T04:50:57;4.00;4.00;1.00
65383;PMS5003;51986;52.788;41.368;2024-01-07T04:53:24;3.00;3.00;1.00
65383;PMS5003;51986;52.788;41.368;2024-01-07T04:55:51;4.00;3.75;2.00
65383;PMS5003;51986;52.788;41.368;2024-01-07T04:58:18;4.00;4.00;1.25
65383;PMS5003;51986;52.788;41.368;2024-01-07T05:00:45;4.00;3.00;2.25
65383;PMS5003;51986;52.788;41.368;2024-01-07T05:03:12;2.75;2.75;1.00
65383;PMS5003;51986;52.788;41.368;2024-01-07T05:05:39;3.00;3.00;1.00
65383;PMS5003;51986;52.788;41.368;2024-01-07T05:08:06;4.75;4.00;1.00
65383;PMS5003;51986;52.788;41.368;2024-01-07T05:10:33;4.00;4.00;2.00
65383;PMS5003;51986;52.788;41.368;2024-01-07T05:13:00;3.00;3.00;2.00
65383;PMS5003;51986;52.788;41.368;2024-01-07T05:15:27;4.00;3.75;1.00
65383;PMS5003;51986;52.788;41.368;2024-01-07T05:17:55;4.00;4.00;1.50
65383;PMS5003;51986;52.788;41.368;2024-01-07T05:20:22;3.00;3.00;1.00
65383;PMS5003;51986;52.788;41.368;2024-01-07T05:22:49;1.00;1.00;1.00
65383;PMS5003;51986;52.788;41.368;2024-01-07T05:25:16;2.75;2.50;0.25
65383;PMS5003;51986;52.788;41.368;2024-01-07T05:27:43;3.00;3.00;0.25
65383;PMS5003;51986;52.788;41.368;2024-01-07T05:30:10;1.75;1.75;0.00
65383;PMS5003;51986;52.788;41.368;2024-01-07T05:32:37;2.00;1.00;0.00
65383;PMS5003;51986;52.788;41.368;2024-01-07T05:35:04;1.00;1.00;0.00
65383;PMS5003;51986;52.788;41.368;2024-01-07T05:37:32;3.00;2.75;1.00
65383;PMS5003;51986;52.788;41.368;2024-01-07T05:39:59;2.25;2.25;1.00
65383;PMS5003;51986;52.788;41.368;2024-01-07T05:42:26;4.00;2.00;1.00
65383;PMS5003;51986;52.788;41.368;2024-01-07T05:44:53;1.50;1.00;1.00
65383;PMS5003;51986;52.788;41.368;2024-01-07T05:47:20;3.00;2.00;0.00
65383;PMS5003;51986;52.788;41.368;2024-01-07T05:49:47;3.00;1.75;0.00
65383;PMS5003;51986;52.788;41.368;2024-01-07T05:52:14;1.00;1.00;0.00
65383;PMS5003;51986;52.788;41.368;2024-01-07T05:54:42;2.00;1.00;0.00
65383;PMS5003;51986;52.788;41.368;2024-01-07T05:57:10;2.25;1.00;0.00
65383;PMS5003;51986;52.788;41.368;2024-01-07T05:59:38;2.75;1.75;0.00
65383;PMS5003;51986;52.788;41.368;2024-01-07T06:02:05;4.00;3.00;0.00
65383;PMS5003;51986;52.788;41.368;2024-01-07T06:04:32;2.25;2.00;1.00
65383;PMS5003;51986;52.788;41.368;2024-01-07T06:06:59;2.75;2.00;1.00
65383;PMS5003;51986;52.788;41.368;2024-01-07T06:09:27;2.00;1.00;1.00
65383;PMS5003;51986;52.788;41.368;2024-01-07T06:11:54;1.50;1.50;0.50
65383;PMS5003;51986;52.788;41.368;2024-01-07T06:14:24;1.00;0.00;0.00
65383;PMS5003;51986;52.788;41.368;2024-01-07T06:16:51;0.25;0.25;0.00
65383;PMS5003;51986;52.788;41.368;2024-01-07T06:19:19;1.50;1.00;0.00
65383;PMS5003;51986;52.788;41.368;2024-01-07T06:21:46;1.00;1.00;0.00
65383;PMS5003;51986;52.788;41.368;2024-01-07T06:24:13;3.00;2.00;0.00
65383;PMS5003;51986;52.788;41.368;2024-01-07T06:26:40;3.00;2.00;0.00
65383;PMS5003;51986;52.788;41.368;2024-01-07T06:29:07;1.00;1.00;0.00
65383;PMS5003;51986;52.788;41.368;2024-01-07T06:31:35;1.00;1.00;0.00
65383;PMS5003;51986;52.788;41.368;2024-01-07T06:34:02;0.25;0.25;0.00
65383;PMS5003;51986;52.788;41.368;2024-01-07T06:36:29;1.00;1.00;0.00
65383;PMS5003;51986;52.788;41.368;2024-01-07T06:38:56;0.00;0.00;0.00
65383;PMS5003;51986;52.788;41.368;2024-01-07T06:41:23;0.00;0.00;0.00
65383;PMS5003;51986;52.788;41.368;2024-01-07T06:43:51;2.75;1.00;0.50
65383;PMS5003;51986;52.788;41.368;2024-01-07T06:46:18;1.00;1.00;0.00
65383;PMS5003;51986;52.788;41.368;2024-01-07T06:48:45;1.00;1.00;1.00
65383;PMS5003;51986;52.788;41.368;2024-01-07T06:51:17;0.75;0.50;0.00
65383;PMS5003;51986;52.788;41.368;2024-01-07T06:53:44;1.00;1.00;0.00
65383;PMS5003;51986;52.788;41.368;2024-01-07T06:56:13;1.00;1.00;0.00
65383;PMS5003;51986;52.788;41.368;2024-01-07T06:58:42;1.00;1.00;0.00
65383;PMS5003;51986;52.788;41.368;2024-01-07T07:01:09;0.00;0.00;0.00
65383;PMS5003;51986;52.788;41.368;2024-01-07T07:03:37;0.00;0.00;0.00
65383;PMS5003;51986;52.788;41.368;2024-01-07T07:06:05;0.75;0.00;0.00
65383;PMS5003;51986;52.788;41.368;2024-01-07T07:08:32;0.00;0.00;0.00
65383;PMS5003;51986;52.788;41.368;2024-01-07T07:11:00;1.25;1.00;0.25
65383;PMS5003;51986;52.788;41.368;2024-01-07T07:13:28;0.00;0.00;0.00
65383;PMS5003;51986;52.788;41.368;2024-01-07T07:15:55;2.00;1.75;0.00
65383;PMS5003;51986;52.788;41.368;2024-01-07T07:18:23;0.00;0.00;0.00
65383;PMS5003;51986;52.788;41.368;2024-01-07T07:20:51;1.00;1.00;0.00
65383;PMS5003;51986;52.788;41.368;2024-01-07T07:23:21;1.00;1.00;0.00
65383;PMS5003;51986;52.788;41.368;2024-01-07T07:25:48;1.00;0.00;0.00
65383;PMS5003;51986;52.788;41.368;2024-01-07T07:28:15;1.00;1.00;0.00
65383;PMS5003;51986;52.788;41.368;2024-01-07T07:30:42;0.00;0.00;0.00
65383;PMS5003;51986;52.788;41.368;2024-01-07T07:33:10;2.00;1.00;0.00
65383;PMS5003;51986;52.788;41.368;2024-01-07T07:35:37;1.00;1.00;0.00
65383;PMS5003;51986;52.788;41.368;2024-01-07T07:38:04;0.25;0.25;0.00
65383;PMS5003;51986;52.788;41.368;2024-01-07T07:40:31;1.00;1.00;0.00
65383;PMS5003;51986;52.788;41.368;2024-01-07T07:42:58;1.00;0.25;0.00
65383;PMS5003;51986;52.788;41.368;2024-01-07T07:45:26;0.00;0.00;0.00
65383;PMS5003;51986;52.788;41.368;2024-01-07T07:47:53;0.00;0.00;0.00
65383;PMS5003;51986;52.788;41.368;2024-01-07T07:50:21;1.00;1.00;0.00
65383;PMS5003;51986;52.788;41.368;2024-01-07T07:52:48;0.00;0.00;0.00
65383;PMS5003;51986;52.788;41.368;2024-01-07T07:55:16;1.00;1.00;0.00
65383;PMS5003;51986;52.788;41.368;2024-01-07T07:57:43;2.75;1.00;1.00
65383;PMS5003;51986;52.788;41.368;2024-01-07T08:00:11;1.00;1.00;0.00
65383;PMS5003;51986;52.788;41.368;2024-01-07T08:02:38;0.00;0.00;0.00
65383;PMS5003;51986;52.788;41.368;2024-01-07T08:05:06;0.00;0.00;0.00
65383;PMS5003;51986;52.788;41.368;2024-01-07T08:07:34;2.00;2.00;0.00
65383;PMS5003;51986;52.788;41.368;2024-01-07T08:10:01;1.00;1.00;0.00
65383;PMS5003;51986;52.788;41.368;2024-01-07T08:12:28;1.00;1.00;0.00
65383;PMS5003;51986;52.788;41.368;2024-01-07T08:14:55;1.00;0.50;0.00
65383;PMS5003;51986;52.788;41.368;2024-01-07T08:17:22;1.00;1.00;0.00
65383;PMS5003;51986;52.788;41.368;2024-01-07T08:19:51;1.50;1.25;0.00
65383;PMS5003;51986;52.788;41.368;2024-01-07T08:22:19;1.00;0.00;0.00
65383;PMS5003;51986;52.788;41.368;2024-01-07T08:24:46;2.50;2.00;0.00
65383;PMS5003;51986;52.788;41.368;2024-01-07T08:27:13;2.00;1.00;0.00
65383;PMS5003;51986;52.788;41.368;2024-01-07T08:29:42;1.25;1.00;0.00
65383;PMS5003;51986;52.788;41.368;2024-01-07T08:32:09;3.00;3.00;1.00
65383;PMS5003;51986;52.788;41.368;2024-01-07T08:34:37;0.00;0.00;0.00
65383;PMS5003;51986;52.788;41.368;2024-01-07T08:37:04;0.50;0.50;0.00
65383;PMS5003;51986;52.788;41.368;2024-01-07T08:39:32;0.00;0.00;0.00
65383;PMS5003;51986;52.788;41.368;2024-01-07T08:41:59;0.75;0.25;0.00
65383;PMS5003;51986;52.788;41.368;2024-01-07T08:44:26;1.00;1.00;0.00
65383;PMS5003;51986;52.788;41.368;2024-01-07T08:46:53;1.00;0.00;0.00
65383;PMS5003;51986;52.788;41.368;2024-01-07T08:49:20;0.25;0.00;0.00
65383;PMS5003;51986;52.788;41.368;2024-01-07T08:51:47;2.00;0.50;0.00
65383;PMS5003;51986;52.788;41.368;2024-01-07T08:54:14;1.00;1.00;0.00
65383;PMS5003;51986;52.788;41.368;2024-01-07T08:56:41;0.00;0.00;0.00
65383;PMS5003;51986;52.788;41.368;2024-01-07T08:59:08;1.00;1.00;0.00
65383;PMS5003;51986;52.788;41.368;2024-01-07T09:01:36;1.00;0.00;0.00
65383;PMS5003;51986;52.788;41.368;2024-01-07T09:04:03;0.00;0.00;0.00
65383;PMS5003;51986;52.788;41.368;2024-01-07T09:06:30;0.00;0.00;0.00
65383;PMS5003;51986;52.788;41.368;2024-01-07T09:08:57;1.00;1.00;0.00
65383;PMS5003;51986;52.788;41.368;2024-01-07T09:11:25;0.00;0.00;0.00
65383;PMS5003;51986;52.788;41.368;2024-01-07T09:13:52;0.00;0.00;0.00
65383;PMS5003;51986;52.788;41.368;2024-01-07T09:16:19;0.00;0.00;0.00
65383;PMS5003;51986;52.788;41.368;2024-01-07T09:18:46;3.00;1.50;0.00
65383;PMS5003;51986;52.788;41.368;2024-01-07T09:21:14;2.00;1.00;0.00
65383;PMS5003;51986;52.788;41.368;2024-01-07T09:23:41;1.00;1.00;0.00
65383;PMS5003;51986;52.788;41.368;2024-01-07T09:26:08;1.00;1.00;0.00
65383;PMS5003;51986;52.788;41.368;2024-01-07T09:28:35;1.00;0.25;0.00
65383;PMS5003;51986;52.788;41.368;2024-01-07T09:31:02;2.00;1.00;0.00
65383;PMS5003;51986;52.788;41.368;2024-01-07T09:33:29;0.00;0.00;0.00
65383;PMS5003;51986;52.788;41.368;2024-01-07T09:35:57;1.00;0.25;0.00
65383;PMS5003;51986;52.788;41.368;2024-01-07T09:38:36;1.00;1.00;0.00
65383;PMS5003;51986;52.788;41.368;2024-01-07T09:41:03;0.00;0.00;0.00
65383;PMS5003;51986;52.788;41.368;2024-01-07T09:43:31;0.25;0.00;0.00
65383;PMS5003;51986;52.788;41.368;2024-01-07T09:46:02;0.00;0.00;0.00
65383;PMS5003;51986;52.788;41.368;2024-01-07T09:48:30;1.00;0.00;0.00
65383;PMS5003;51986;52.788;41.368;2024-01-07T09:50:57;1.00;0.00;0.00
65383;PMS5003;51986;52.788;41.368;2024-01-07T09:53:25;0.00;0.00;0.00
65383;PMS5003;51986;52.788;41.368;2024-01-07T09:58:40;1.00;0.50;0.00
65383;PMS5003;51986;52.788;41.368;2024-01-07T10:01:09;1.00;0.00;0.00
65383;PMS5003;51986;52.788;41.368;2024-01-07T10:03:37;1.00;1.00;0.00
65383;PMS5003;51986;52.788;41.368;2024-01-07T10:06:04;1.00;1.00;0.00
65383;PMS5003;51986;52.788;41.368;2024-01-07T10:08:32;0.00;0.00;0.00
65383;PMS5003;51986;52.788;41.368;2024-01-07T10:10:59;0.00;0.00;0.00
65383;PMS5003;51986;52.788;41.368;2024-01-07T10:13:26;0.00;0.00;0.00
65383;PMS5003;51986;52.788;41.368;2024-01-07T10:15:53;1.00;0.75;0.00
65383;PMS5003;51986;52.788;41.368;2024-01-07T10:18:20;0.25;0.25;0.00
65383;PMS5003;51986;52.788;41.368;2024-01-07T10:20:48;1.00;1.00;0.50
65383;PMS5003;51986;52.788;41.368;2024-01-07T10:23:21;1.50;1.00;1.00
65383;PMS5003;51986;52.788;41.368;2024-01-07T10:25:48;0.00;0.00;0.00
65383;PMS5003;51986;52.788;41.368;2024-01-07T10:28:15;0.00;0.00;0.00
65383;PMS5003;51986;52.788;41.368;2024-01-07T10:30:48;1.25;1.00;0.00
65383;PMS5003;51986;52.788;41.368;2024-01-07T10:33:17;0.75;0.75;0.00
65383;PMS5003;51986;52.788;41.368;2024-01-07T10:35:45;1.00;0.00;0.00
65383;PMS5003;51986;52.788;41.368;2024-01-07T10:38:19;0.00;0.00;0.00
65383;PMS5003;51986;52.788;41.368;2024-01-07T10:40:46;0.00;0.00;0.00
65383;PMS5003;51986;52.788;41.368;2024-01-07T10:43:15;1.00;0.00;0.00
65383;PMS5003;51986;52.788;41.368;2024-01-07T10:45:43;1.00;0.00;0.00
65383;PMS5003;51986;52.788;41.368;2024-01-07T10:48:16;1.00;0.50;0.00
65383;PMS5003;51986;52.788;41.368;2024-01-07T10:50:45;0.00;0.00;0.00
65383;PMS5003;51986;52.788;41.368;2024-01-07T10:53:14;0.25;0.25;0.00
65383;PMS5003;51986;52.788;41.368;2024-01-07T10:55:52;1.00;1.00;0.00
65383;PMS5003;51986;52.788;41.368;2024-01-07T10:58:26;1.00;1.00;0.00
65383;PMS5003;51986;52.788;41.368;2024-01-07T11:00:53;2.00;1.00;0.00
65383;PMS5003;51986;52.788;41.368;2024-01-07T11:06:09;1.00;1.00;0.00
65383;PMS5003;51986;52.788;41.368;2024-01-07T11:08:50;0.00;0.00;0.00
65383;PMS5003;51986;52.788;41.368;2024-01-07T11:11:25;0.00;0.00;0.00
65383;PMS5003;51986;52.788;41.368;2024-01-07T11:13:54;0.00;0.00;0.00
65383;PMS5003;51986;52.788;41.368;2024-01-07T11:16:41;0.75;0.00;0.00
65383;PMS5003;51986;52.788;41.368;2024-01-07T11:19:12;1.75;1.00;0.00
65383;PMS5003;51986;52.788;41.368;2024-01-07T11:21:40;1.00;1.00;0.00
65383;PMS5003;51986;52.788;41.368;2024-01-07T11:24:07;0.00;0.00;0.00
65383;PMS5003;51986;52.788;41.368;2024-01-07T11:26:34;1.00;1.00;0.00
65383;PMS5003;51986;52.788;41.368;2024-01-07T11:29:01;0.00;0.00;0.00
65383;PMS5003;51986;52.788;41.368;2024-01-07T11:31:44;2.00;1.25;0.00
65383;PMS5003;51986;52.788;41.368;2024-01-07T11:34:37;1.00;1.00;0.00
65383;PMS5003;51986;52.788;41.368;2024-01-07T11:37:06;1.00;1.00;0.00
65383;PMS5003;51986;52.788;41.368;2024-01-07T11:39:36;1.00;1.00;0.00
65383;PMS5003;51986;52.788;41.368;2024-01-07T11:42:03;1.00;1.00;0.00
65383;PMS5003;51986;52.788;41.368;2024-01-07T11:44:33;0.00;0.00;0.00
65383;PMS5003;51986;52.788;41.368;2024-01-07T11:47:01;0.00;0.00;0.00
65383;PMS5003;51986;52.788;41.368;2024-01-07T11:49:28;1.00;1.00;0.00
65383;PMS5003;51986;52.788;41.368;2024-01-07T11:51:56;0.00;0.00;0.00
65383;PMS5003;51986;52.788;41.368;2024-01-07T11:54:23;1.00;1.00;0.00
65383;PMS5003;51986;52.788;41.368;2024-01-07T11:56:50;0.00;0.00;0.00
65383;PMS5003;51986;52.788;41.368;2024-01-07T11:59:17;1.00;1.00;0.00
65383;PMS5003;51986;52.788;41.368;2024-01-07T12:01:44;0.00;0.00;0.00
65383;PMS5003;51986;52.788;41.368;2024-01-07T12:04:11;1.00;1.00;0.00
65383;PMS5003;51986;52.788;41.368;2024-01-07T12:06:39;0.25;0.25;0.00
65383;PMS5003;51986;52.788;41.368;2024-01-07T12:09:07;0.00;0.00;0.00
65383;PMS5003;51986;52.788;41.368;2024-01-07T12:11:34;1.00;1.00;0.00
65383;PMS5003;51986;52.788;41.368;2024-01-07T12:14:02;0.00;0.00;0.00
65383;PMS5003;51986;52.788;41.368;2024-01-07T12:16:29;0.00;0.00;0.00
65383;PMS5003;51986;52.788;41.368;2024-01-07T12:18:57;0.00;0.00;0.00
65383;PMS5003;51986;52.788;41.368;2024-01-07T12:21:24;0.00;0.00;0.00
65383;PMS5003;51986;52.788;41.368;2024-01-07T12:23:53;0.00;0.00;0.00
65383;PMS5003;51986;52.788;41.368;2024-01-07T12:26:21;0.00;0.00;0.00
65383;PMS5003;51986;52.788;41.368;2024-01-07T12:28:53;0.00;0.00;0.00
65383;PMS5003;51986;52.788;41.368;2024-01-07T12:31:22;0.00;0.00;0.00
65383;PMS5003;51986;52.788;41.368;2024-01-07T12:33:51;0.75;0.75;0.25
65383;PMS5003;51986;52.788;41.368;2024-01-07T12:36:22;0.00;0.00;0.00
65383;PMS5003;51986;52.788;41.368;2024-01-07T12:38:50;0.00;0.00;0.00
65383;PMS5003;51986;52.788;41.368;2024-01-07T12:41:19;0.50;0.50;0.00
65383;PMS5003;51986;52.788;41.368;2024-01-07T12:43:47;1.00;1.00;0.00
65383;PMS5003;51986;52.788;41.368;2024-01-07T12:46:15;0.00;0.00;0.00
65383;PMS5003;51986;52.788;41.368;2024-01-07T12:48:48;0.00;0.00;0.00
65383;PMS5003;51986;52.788;41.368;2024-01-07T12:51:15;0.00;0.00;0.00
65383;PMS5003;51986;52.788;41.368;2024-01-07T12:53:47;0.00;0.00;0.00
65383;PMS5003;51986;52.788;41.368;2024-01-07T12:56:14;0.00;0.00;0.00
65383;PMS5003;51986;52.788;41.368;2024-01-07T12:58:41;0.00;0.00;0.00
65383;PMS5003;51986;52.788;41.368;2024-01-07T13:01:10;0.00;0.00;0.00
65383;PMS5003;51986;52.788;41.368;2024-01-07T13:03:38;0.00;0.00;0.00
65383;PMS5003;51986;52.788;41.368;2024-01-07T13:06:05;0.00;0.00;0.00
65383;PMS5003;51986;52.788;41.368;2024-01-07T13:08:33;0.00;0.00;0.00
65383;PMS5003;51986;52.788;41.368;2024-01-07T13:11:00;0.00;0.00;0.00
65383;PMS5003;51986;52.788;41.368;2024-01-07T13:13:27;0.00;0.00;0.00
65383;PMS5003;51986;52.788;41.368;2024-01-07T13:15:54;0.00;0.00;0.00
65383;PMS5003;51986;52.788;41.368;2024-01-07T13:18:21;0.00;0.00;0.00
65383;PMS5003;51986;52.788;41.368;2024-01-07T13:20:48;0.00;0.00;0.00
65383;PMS5003;51986;52.788;41.368;2024-01-07T13:23:15;0.00;0.00;0.00
65383;PMS5003;51986;52.788;41.368;2024-01-07T13:25:43;0.00;0.00;0.00
65383;PMS5003;51986;52.788;41.368;2024-01-07T13:28:10;0.00;0.00;0.00
65383;PMS5003;51986;52.788;41.368;2024-01-07T13:30:38;0.00;0.00;0.00
65383;PMS5003;51986;52.788;41.368;2024-01-07T13:33:05;0.00;0.00;0.00
65383;PMS5003;51986;52.788;41.368;2024-01-07T13:35:33;0.00;0.00;0.00
65383;PMS5003;51986;52.788;41.368;2024-01-07T13:38:00;0.00;0.00;0.00
65383;PMS5003;51986;52.788;41.368;2024-01-07T13:40:28;0.00;0.00;0.00
65383;PMS5003;51986;52.788;41.368;2024-01-07T13:42:55;0.00;0.00;0.00
65383;PMS5003;51986;52.788;41.368;2024-01-07T13:45:22;1.00;1.00;0.00
65383;PMS5003;51986;52.788;41.368;2024-01-07T13:47:49;0.00;0.00;0.00
65383;PMS5003;51986;52.788;41.368;2024-01-07T13:50:20;0.00;0.00;0.00
65383;PMS5003;51986;52.788;41.368;2024-01-07T13:52:48;0.00;0.00;0.00
65383;PMS5003;51986;52.788;41.368;2024-01-07T13:55:15;0.00;0.00;0.00
65383;PMS5003;51986;52.788;41.368;2024-01-07T13:57:42;0.00;0.00;0.00
65383;PMS5003;51986;52.788;41.368;2024-01-07T14:00:09;1.00;1.00;0.00
65383;PMS5003;51986;52.788;41.368;2024-01-07T14:02:37;0.00;0.00;0.00
65383;PMS5003;51986;52.788;41.368;2024-01-07T14:05:05;0.00;0.00;0.00
65383;PMS5003;51986;52.788;41.368;2024-01-07T14:07:33;0.75;0.00;0.00
65383;PMS5003;51986;52.788;41.368;2024-01-07T14:10:00;0.00;0.00;0.00